Sarfaq Ittuk — OWDD — position and weather

sailwx.info

Track history (hours):
 
Tides and Currents Weather Stations Pressure Air Temp Water Temp Dewpoint Dewpoint Depression Visibility Wind Speed Wind Dir Waves Ship Positions

Sarfaq Ittuk

Last reported at 2020-Jan-20 08:43 UTC. Time now 2020-Jan-22 00:04 UTC.
Position N 57°43' E 010°35'.

Length 73 m; beam 11.1 m; draft 3.7 m.

Type: Passenger vessel. MMSI: 331000499.

Date/timePositionNaut miles runAvg speedWind from/ knotsBaromVisibWave heightAir tempDewpointWater temp
2020-Jan-20 08:43N 57°43' E 010°35'0 0.0
2020-Jan-20 05:34N 57°43' E 010°35'0 0.0
2020-Jan-20 05:13N 57°43' E 010°35'0 0.0
2020-Jan-20 04:37N 57°43' E 010°35'0 0.0
2020-Jan-20 03:25N 57°43' E 010°35'0 0.0
2020-Jan-20 02:25N 57°43' E 010°35'0 0.0
2020-Jan-19 23:28N 57°43' E 010°35'0 0.0
2020-Jan-19 20:58N 57°43' E 010°35'4 0.1
2020-Jan-18 06:30N 57°44' E 010°44'0 0.2
2020-Jan-18 06:00N 57°44' E 010°43'1 0.4
2020-Jan-18 04:00N 57°44' E 010°45'28 6.8
2020-Jan-17 23:52N 57°45' E 009°52'29 7.4
2020-Jan-17 20:00N 57°44' E 008°58'11 7.4
2020-Jan-17 18:30N 57°42' E 008°38'8 7.4
2020-Jan-17 17:30N 57°41' E 008°24'8 7.6
2020-Jan-17 16:30N 57°38' E 008°11'12 7.7
2020-Jan-17 15:00N 57°34' E 007°51'25 7.0
2020-Jan-17 11:30N 57°31' E 007°06'25 8.4
2020-Jan-17 08:30N 57°35' E 006°20'1510.2
2020-Jan-17 07:00N 57°44' E 005°56'2110.3
2020-Jan-17 05:00N 57°54' E 005°22'510.2
2020-Jan-17 04:30N 57°56' E 005°13'510.3
2020-Jan-17 04:00N 57°58' E 005°04'1510.3
2020-Jan-17 02:30N 58°04' E 004°37'2010.1
2020-Jan-17 00:30N 58°11' E 004°01'  
Track history (hours):
 
Tides and Currents Weather Stations Pressure Air Temp Water Temp Dewpoint Dewpoint Depression Visibility Wind Speed Wind Dir Waves Ship Positions

Sarfaq Ittuk

Last reported at 2020-Jan-20 08:43 UTC. Time now 2020-Jan-22 00:04 UTC.
Position N 57°43' E 010°35'.

Length 73 m; beam 11.1 m; draft 3.7 m.

Type: Passenger vessel. MMSI: 331000499.

Date/timePositionNaut miles runAvg speedWind from/ knotsBaromVisibWave heightAir tempDewpointWater temp
2020-Jan-20 08:43N 57°43' E 010°35'0 0.0
2020-Jan-20 05:34N 57°43' E 010°35'0 0.0
2020-Jan-20 05:13N 57°43' E 010°35'0 0.0
2020-Jan-20 04:37N 57°43' E 010°35'0 0.0
2020-Jan-20 03:25N 57°43' E 010°35'0 0.0
2020-Jan-20 02:25N 57°43' E 010°35'0 0.0
2020-Jan-19 23:28N 57°43' E 010°35'0 0.0
2020-Jan-19 20:58N 57°43' E 010°35'4 0.1
2020-Jan-18 06:30N 57°44' E 010°44'0 0.2
2020-Jan-18 06:00N 57°44' E 010°43'1 0.4
2020-Jan-18 04:00N 57°44' E 010°45'28 6.8
2020-Jan-17 23:52N 57°45' E 009°52'29 7.4
2020-Jan-17 20:00N 57°44' E 008°58'11 7.4
2020-Jan-17 18:30N 57°42' E 008°38'8 7.4
2020-Jan-17 17:30N 57°41' E 008°24'8 7.6
2020-Jan-17 16:30N 57°38' E 008°11'12 7.7
2020-Jan-17 15:00N 57°34' E 007°51'25 7.0
2020-Jan-17 11:30N 57°31' E 007°06'25 8.4
2020-Jan-17 08:30N 57°35' E 006°20'1510.2
2020-Jan-17 07:00N 57°44' E 005°56'2110.3
2020-Jan-17 05:00N 57°54' E 005°22'510.2
2020-Jan-17 04:30N 57°56' E 005°13'510.3
2020-Jan-17 04:00N 57°58' E 005°04'1510.3
2020-Jan-17 02:30N 58°04' E 004°37'2010.1
2020-Jan-17 00:30N 58°11' E 004°01'  

Dump ship's entire track history